sensor_id;sensor_type;location;lat;lon;timestamp;pressure;altitude;pressure_sealevel;temperature;humidity
36354;BME280;22383;51.114;13.666;2022-11-28T00:01:37;67432.44;;;2.14;100.00
36354;BME280;22383;51.114;13.666;2022-11-28T00:04:06;67426.13;;;2.13;100.00
36354;BME280;22383;51.114;13.666;2022-11-28T00:06:43;67423.28;;;2.10;100.00
36354;BME280;22383;51.114;13.666;2022-11-28T00:09:20;67428.50;;;2.10;100.00
36354;BME280;22383;51.114;13.666;2022-11-28T00:11:48;67423.28;;;2.10;100.00
36354;BME280;22383;51.114;13.666;2022-11-28T00:14:17;67421.03;;;2.08;100.00
36354;BME280;22383;51.114;13.666;2022-11-28T00:16:45;67417.31;;;2.07;100.00
36354;BME280;22383;51.114;13.666;2022-11-28T00:19:13;67414.84;;;2.02;100.00
36354;BME280;22383;51.114;13.666;2022-11-28T00:21:41;67419.91;;;2.07;100.00
36354;BME280;22383;51.114;13.666;2022-11-28T00:24:08;67422.38;;;2.12;100.00
36354;BME280;22383;51.114;13.666;2022-11-28T00:26:38;67427.44;;;2.16;100.00
36354;BME280;22383;51.114;13.666;2022-11-28T00:29:07;67427.03;;;2.11;100.00
36354;BME280;22383;51.114;13.666;2022-11-28T00:31:37;67423.66;;;2.08;100.00
36354;BME280;22383;51.114;13.666;2022-11-28T00:34:11;67422.53;;;2.07;100.00
36354;BME280;22383;51.114;13.666;2022-11-28T00:36:39;67413.56;;;2.06;100.00
36354;BME280;22383;51.114;13.666;2022-11-28T00:39:06;67413.72;;;2.01;100.00
36354;BME280;22383;51.114;13.666;2022-11-28T00:41:34;67419.72;;;2.04;100.00
36354;BME280;22383;51.114;13.666;2022-11-28T00:44:01;67418.78;;;2.06;100.00
36354;BME280;22383;51.114;13.666;2022-11-28T00:46:29;67420.47;;;2.07;100.00
36354;BME280;22383;51.114;13.666;2022-11-28T00:48:57;67414.50;;;2.04;100.00
36354;BME280;22383;51.114;13.666;2022-11-28T00:51:27;67414.84;;;2.02;100.00
36354;BME280;22383;51.114;13.666;2022-11-28T00:53:58;67417.66;;;2.05;100.00
36354;BME280;22383;51.114;13.666;2022-11-28T00:56:28;67412.59;;;2.00;100.00
36354;BME280;22383;51.114;13.666;2022-11-28T00:58:56;67412.25;;;2.02;100.00
36354;BME280;22383;51.114;13.666;2022-11-28T01:01:30;67424.97;;;2.12;100.00
36354;BME280;22383;51.114;13.666;2022-11-28T01:04:00;67429.09;;;2.11;100.00
36354;BME280;22383;51.114;13.666;2022-11-28T01:06:31;67423.88;;;2.11;100.00
36354;BME280;22383;51.114;13.666;2022-11-28T01:09:00;67421.81;;;2.11;100.00
36354;BME280;22383;51.114;13.666;2022-11-28T01:11:28;67427.44;;;2.16;100.00
36354;BME280;22383;51.114;13.666;2022-11-28T01:13:58;67420.69;;;2.10;100.00
36354;BME280;22383;51.114;13.666;2022-11-28T01:16:27;67425.91;;;2.10;100.00
36354;BME280;22383;51.114;13.666;2022-11-28T01:18:54;67429.28;;;2.13;100.00
36354;BME280;22383;51.114;13.666;2022-11-28T01:21:22;67430.06;;;2.16;100.00
36354;BME280;22383;51.114;13.666;2022-11-28T01:23:50;67429.50;;;2.16;100.00
36354;BME280;22383;51.114;13.666;2022-11-28T01:26:20;67423.88;;;2.11;100.00
36354;BME280;22383;51.114;13.666;2022-11-28T01:28:47;67422.38;;;2.12;100.00
36354;BME280;22383;51.114;13.666;2022-11-28T01:31:17;67422.72;;;2.10;100.00
36354;BME280;22383;51.114;13.666;2022-11-28T01:33:45;67431.53;;;2.15;100.00
36354;BME280;22383;51.114;13.666;2022-11-28T01:36:13;67424.97;;;2.12;100.00
36354;BME280;22383;51.114;13.666;2022-11-28T01:38:41;67415.25;;;2.07;100.00
36354;BME280;22383;51.114;13.666;2022-11-28T01:41:09;67415.97;;;2.03;100.00
36354;BME280;22383;51.114;13.666;2022-11-28T01:46:22;67413.72;;;2.01;100.00
36354;BME280;22383;51.114;13.666;2022-11-28T01:48:50;67416.72;;;2.06;100.00
36354;BME280;22383;51.114;13.666;2022-11-28T01:51:19;67411.09;;;2.01;100.00
36354;BME280;22383;51.114;13.666;2022-11-28T01:53:47;67410.34;;;1.98;100.00
36354;BME280;22383;51.114;13.666;2022-11-28T01:56:22;67410.00;;;2.00;100.00
36354;BME280;22383;51.114;13.666;2022-11-28T01:58:53;67405.47;;;1.96;100.00
36354;BME280;22383;51.114;13.666;2022-11-28T02:01:24;67410.34;;;1.98;100.00
36354;BME280;22383;51.114;13.666;2022-11-28T02:03:52;67407.53;;;1.96;100.00
36354;BME280;22383;51.114;13.666;2022-11-28T02:06:22;67403.59;;;1.92;100.00
36354;BME280;22383;51.114;13.666;2022-11-28T02:08:54;67400.41;;;1.92;100.00
36354;BME280;22383;51.114;13.666;2022-11-28T02:14:24;67402.44;;;1.91;100.00
36354;BME280;22383;51.114;13.666;2022-11-28T02:46:32;67386.69;;;1.77;100.00
36354;BME280;22383;51.114;13.666;2022-11-28T02:49:05;67387.28;;;1.77;100.00
36354;BME280;22383;51.114;13.666;2022-11-28T02:51:40;67387.63;;;1.75;100.00
36354;BME280;22383;51.114;13.666;2022-11-28T02:58:22;67382.75;;;1.73;100.00
36354;BME280;22383;51.114;13.666;2022-11-28T03:00:50;67379.75;;;1.68;100.00
36354;BME280;22383;51.114;13.666;2022-11-28T03:12:21;67373.56;;;1.62;100.00
36354;BME280;22383;51.114;13.666;2022-11-28T03:14:57;67367.94;;;1.57;100.00
36354;BME280;22383;51.114;13.666;2022-11-28T03:25:59;67348.44;;;1.42;100.00
36354;BME280;22383;51.114;13.666;2022-11-28T03:28:46;67344.50;;;1.38;100.00
36354;BME280;22383;51.114;13.666;2022-11-28T03:31:21;67343.94;;;1.38;100.00
36354;BME280;22383;51.114;13.666;2022-11-28T03:33:54;67345.63;;;1.39;100.00
36354;BME280;22383;51.114;13.666;2022-11-28T03:36:31;67349.72;;;1.38;100.00
36354;BME280;22383;51.114;13.666;2022-11-28T03:39:16;67341.34;;;1.38;100.00
36354;BME280;22383;51.114;13.666;2022-11-28T03:41:56;67338.88;;;1.33;100.00
36354;BME280;22383;51.114;13.666;2022-11-28T03:44:28;67340.00;;;1.34;100.00
36354;BME280;22383;51.114;13.666;2022-11-28T03:46:59;67332.69;;;1.27;100.00
36354;BME280;22383;51.114;13.666;2022-11-28T03:53:50;67336.41;;;1.28;100.00
36354;BME280;22383;51.114;13.666;2022-11-28T04:07:51;67317.72;;;1.16;100.00
36354;BME280;22383;51.114;13.666;2022-11-28T04:10:41;67319.53;;;1.13;100.00
36354;BME280;22383;51.114;13.666;2022-11-28T04:16:09;67316.94;;;1.13;100.00
36354;BME280;22383;51.114;13.666;2022-11-28T04:21:39;67311.31;;;1.08;100.00
36354;BME280;22383;51.114;13.666;2022-11-28T04:24:10;67313.91;;;1.08;100.00
36354;BME280;22383;51.114;13.666;2022-11-28T04:26:44;67309.63;;;1.06;100.00
36354;BME280;22383;51.114;13.666;2022-11-28T04:29:17;67311.66;;;1.06;100.00
36354;BME280;22383;51.114;13.666;2022-11-28T04:31:47;67314.47;;;1.08;100.00
36354;BME280;22383;51.114;13.666;2022-11-28T04:34:17;67306.03;;;1.01;100.00
36354;BME280;22383;51.114;13.666;2022-11-28T04:36:47;67305.13;;;1.02;100.00
36354;BME280;22383;51.114;13.666;2022-11-28T04:39:20;67302.88;;;1.00;100.00
36354;BME280;22383;51.114;13.666;2022-11-28T04:41:56;67301.19;;;0.99;100.00
36354;BME280;22383;51.114;13.666;2022-11-28T04:44:50;67300.63;;;0.98;100.00
36354;BME280;22383;51.114;13.666;2022-11-28T04:47:20;67296.91;;;0.97;100.00
36354;BME280;22383;51.114;13.666;2022-11-28T04:49:48;67295.00;;;0.93;100.00
36354;BME280;22383;51.114;13.666;2022-11-28T04:55:09;67290.13;;;0.91;100.00
36354;BME280;22383;51.114;13.666;2022-11-28T04:57:42;67291.63;;;0.90;100.00
36354;BME280;22383;51.114;13.666;2022-11-28T05:00:17;67288.81;;;0.87;100.00
36354;BME280;22383;51.114;13.666;2022-11-28T05:02:46;67283.97;;;0.85;100.00
36354;BME280;22383;51.114;13.666;2022-11-28T05:05:23;67296.47;;;0.92;100.00
36354;BME280;22383;51.114;13.666;2022-11-28T05:07:52;67292.00;;;0.88;100.00
36354;BME280;22383;51.114;13.666;2022-11-28T05:10:19;67287.69;;;0.86;100.00
36354;BME280;22383;51.114;13.666;2022-11-28T05:12:47;67290.50;;;0.89;100.00
36354;BME280;22383;51.114;13.666;2022-11-28T05:15:14;67294.25;;;0.90;100.00
36354;BME280;22383;51.114;13.666;2022-11-28T05:17:45;67288.81;;;0.87;100.00
36354;BME280;22383;51.114;13.666;2022-11-28T05:20:13;67290.50;;;0.89;100.00
36354;BME280;22383;51.114;13.666;2022-11-28T05:22:41;67296.13;;;0.94;100.00
36354;BME280;22383;51.114;13.666;2022-11-28T05:25:08;67292.19;;;0.90;100.00
36354;BME280;22383;51.114;13.666;2022-11-28T05:27:36;67294.78;;;0.90;100.00
36354;BME280;22383;51.114;13.666;2022-11-28T05:30:04;67292.75;;;0.91;100.00
36354;BME280;22383;51.114;13.666;2022-11-28T05:32:32;67301.34;;;0.94;100.00
36354;BME280;22383;51.114;13.666;2022-11-28T05:35:00;67297.63;;;0.93;100.00
36354;BME280;22383;51.114;13.666;2022-11-28T05:37:27;67296.13;;;0.94;100.00
36354;BME280;22383;51.114;13.666;2022-11-28T05:39:55;67292.75;;;0.91;100.00
36354;BME280;22383;51.114;13.666;2022-11-28T05:42:22;67294.78;;;0.90;100.00
36354;BME280;22383;51.114;13.666;2022-11-28T05:44:50;67293.88;;;0.92;100.00
36354;BME280;22383;51.114;13.666;2022-11-28T05:47:17;67291.63;;;0.90;100.00
36354;BME280;22383;51.114;13.666;2022-11-28T05:49:45;67297.81;;;0.96;100.00
36354;BME280;22383;51.114;13.666;2022-11-28T05:52:13;67303.78;;;0.99;100.00
36354;BME280;22383;51.114;13.666;2022-11-28T05:54:40;67301.19;;;0.99;100.00
36354;BME280;22383;51.114;13.666;2022-11-28T05:57:07;67300.41;;;0.96;100.00
36354;BME280;22383;51.114;13.666;2022-11-28T05:59:35;67299.50;;;0.97;100.00
36354;BME280;22383;51.114;13.666;2022-11-28T06:02:02;67293.88;;;0.92;100.00
36354;BME280;22383;51.114;13.666;2022-11-28T06:04:30;67293.31;;;0.91;100.00
36354;BME280;22383;51.114;13.666;2022-11-28T06:06:58;67295.94;;;0.91;100.00
36354;BME280;22383;51.114;13.666;2022-11-28T06:09:25;67303.78;;;0.99;100.00
36354;BME280;22383;51.114;13.666;2022-11-28T06:11:52;67303.44;;;1.01;100.00
36354;BME280;22383;51.114;13.666;2022-11-28T06:14:20;67310.34;;;1.02;100.00
36354;BME280;22383;51.114;13.666;2022-11-28T06:16:47;67308.72;;;1.08;100.00
36354;BME280;22383;51.114;13.666;2022-11-28T06:19:15;67312.09;;;1.11;100.00
36354;BME280;22383;51.114;13.666;2022-11-28T06:21:42;67319.19;;;1.15;100.00
36354;BME280;22383;51.114;13.666;2022-11-28T06:24:10;67327.41;;;1.20;100.00
36354;BME280;22383;51.114;13.666;2022-11-28T06:26:37;67325.38;;;1.21;100.00
36354;BME280;22383;51.114;13.666;2022-11-28T06:29:05;67330.44;;;1.25;100.00
36354;BME280;22383;51.114;13.666;2022-11-28T06:31:32;67334.19;;;1.26;100.00
36354;BME280;22383;51.114;13.666;2022-11-28T06:34:00;67331.00;;;1.26;100.00
36354;BME280;22383;51.114;13.666;2022-11-28T06:36:27;67338.13;;;1.30;100.00
36354;BME280;22383;51.114;13.666;2022-11-28T06:38:56;67338.88;;;1.33;100.00
36354;BME280;22383;51.114;13.666;2022-11-28T06:41:24;67347.47;;;1.36;100.00
36354;BME280;22383;51.114;13.666;2022-11-28T06:43:51;67340.78;;;1.37;100.00
36354;BME280;22383;51.114;13.666;2022-11-28T06:46:20;67351.63;;;1.42;100.00
36354;BME280;22383;51.114;13.666;2022-11-28T06:48:50;67355.19;;;1.48;100.00
36354;BME280;22383;51.114;13.666;2022-11-28T06:51:18;67354.84;;;1.50;100.00
36354;BME280;22383;51.114;13.666;2022-11-28T06:53:46;67353.50;;;1.46;100.00
36354;BME280;22383;51.114;13.666;2022-11-28T06:56:15;67355.19;;;1.48;100.00
36354;BME280;22383;51.114;13.666;2022-11-28T06:58:44;67356.31;;;1.49;100.00
36354;BME280;22383;51.114;13.666;2022-11-28T07:01:18;67360.59;;;1.50;100.00
36354;BME280;22383;51.114;13.666;2022-11-28T07:03:47;67359.69;;;1.52;100.00
36354;BME280;22383;51.114;13.666;2022-11-28T07:06:16;67359.13;;;1.51;100.00
36354;BME280;22383;51.114;13.666;2022-11-28T07:08:44;67363.63;;;1.56;100.00
36354;BME280;22383;51.114;13.666;2022-11-28T07:11:20;67366.09;;;1.60;100.00
36354;BME280;22383;51.114;13.666;2022-11-28T07:13:49;67362.72;;;1.57;100.00
36354;BME280;22383;51.114;13.666;2022-11-28T07:16:20;67373.00;;;1.62;100.00
36354;BME280;22383;51.114;13.666;2022-11-28T07:18:49;67369.81;;;1.61;100.00
36354;BME280;22383;51.114;13.666;2022-11-28T07:21:17;67370.94;;;1.62;100.00
36354;BME280;22383;51.114;13.666;2022-11-28T07:23:45;67369.09;;;1.65;100.00
36354;BME280;22383;51.114;13.666;2022-11-28T07:26:17;67377.84;;;1.64;100.00
36354;BME280;22383;51.114;13.666;2022-11-28T07:28:46;67373.97;;;1.67;100.00
36354;BME280;22383;51.114;13.666;2022-11-28T07:31:17;67376.03;;;1.67;100.00
36354;BME280;22383;51.114;13.666;2022-11-28T07:33:46;67377.72;;;1.68;100.00
36354;BME280;22383;51.114;13.666;2022-11-28T07:36:16;67383.91;;;1.74;100.00
36354;BME280;22383;51.114;13.666;2022-11-28T07:38:46;67380.16;;;1.73;100.00
36354;BME280;22383;51.114;13.666;2022-11-28T07:41:15;67385.94;;;1.74;100.00
36354;BME280;22383;51.114;13.666;2022-11-28T07:43:44;67386.69;;;1.77;100.00
36354;BME280;22383;51.114;13.666;2022-11-28T07:46:15;67391.22;;;1.81;100.00
36354;BME280;22383;51.114;13.666;2022-11-28T07:48:43;67392.91;;;1.82;100.00
36354;BME280;22383;51.114;13.666;2022-11-28T07:51:13;67387.47;;;1.80;100.00
36354;BME280;22383;51.114;13.666;2022-11-28T07:53:41;67392.31;;;1.82;100.00
36354;BME280;22383;51.114;13.666;2022-11-28T07:56:11;67394.38;;;1.81;100.00
36354;BME280;22383;51.114;13.666;2022-11-28T07:58:42;67398.31;;;1.85;100.00
36354;BME280;22383;51.114;13.666;2022-11-28T08:01:22;67394.56;;;1.84;100.00
36354;BME280;22383;51.114;13.666;2022-11-28T08:03:51;67401.34;;;1.90;100.00
36354;BME280;22383;51.114;13.666;2022-11-28T08:06:23;67401.53;;;1.93;100.00
36354;BME280;22383;51.114;13.666;2022-11-28T08:08:52;67405.06;;;1.91;100.00
36354;BME280;22383;51.114;13.666;2022-11-28T08:11:22;67409.03;;;1.95;100.00
36354;BME280;22383;51.114;13.666;2022-11-28T08:13:50;67406.97;;;1.95;100.00
36354;BME280;22383;51.114;13.666;2022-11-28T08:16:26;67408.31;;;1.99;100.00
36354;BME280;22383;51.114;13.666;2022-11-28T08:18:54;67415.41;;;2.03;100.00
36354;BME280;22383;51.114;13.666;2022-11-28T08:21:31;67422.16;;;2.09;100.00
36354;BME280;22383;51.114;13.666;2022-11-28T08:24:01;67427.81;;;2.14;100.00
36354;BME280;22383;51.114;13.666;2022-11-28T08:26:30;67427.81;;;2.14;100.00
36354;BME280;22383;51.114;13.666;2022-11-28T08:28:59;67433.44;;;2.19;100.00
36354;BME280;22383;51.114;13.666;2022-11-28T08:31:31;67433.44;;;2.19;100.00
36354;BME280;22383;51.114;13.666;2022-11-28T08:34:00;67436.25;;;2.22;100.00
36354;BME280;22383;51.114;13.666;2022-11-28T08:36:29;67428.22;;;2.19;100.00
36354;BME280;22383;51.114;13.666;2022-11-28T08:39:02;67428.91;;;2.15;100.00
36354;BME280;22383;51.114;13.666;2022-11-28T08:41:50;67427.44;;;2.16;100.00
36354;BME280;22383;51.114;13.666;2022-11-28T08:44:17;67431.31;;;2.13;100.00
36354;BME280;22383;51.114;13.666;2022-11-28T08:46:44;67433.94;;;2.13;100.00
36354;BME280;22383;51.114;13.666;2022-11-28T08:49:12;67430.41;;;2.14;100.00
36354;BME280;22383;51.114;13.666;2022-11-28T08:51:40;67436.97;;;2.18;100.00
36354;BME280;22383;51.114;13.666;2022-11-28T08:54:08;67436.59;;;2.20;100.00
36354;BME280;22383;51.114;13.666;2022-11-28T08:56:36;67429.69;;;2.18;100.00
36354;BME280;22383;51.114;13.666;2022-11-28T08:59:03;67443.00;;;2.28;100.00
36354;BME280;22383;51.114;13.666;2022-11-28T09:01:33;67443.00;;;2.28;100.00
36354;BME280;22383;51.114;13.666;2022-11-28T09:04:02;67439.63;;;2.25;100.00
36354;BME280;22383;51.114;13.666;2022-11-28T09:06:30;67448.97;;;2.31;100.00
36354;BME280;22383;51.114;13.666;2022-11-28T09:08:58;67452.38;;;2.34;100.00
36354;BME280;22383;51.114;13.666;2022-11-28T09:11:27;67456.53;;;2.40;100.00
36354;BME280;22383;51.114;13.666;2022-11-28T09:13:55;67460.81;;;2.42;100.00
36354;BME280;22383;51.114;13.666;2022-11-28T09:16:23;67456.53;;;2.40;100.00
36354;BME280;22383;51.114;13.666;2022-11-28T09:18:54;67453.13;;;2.37;100.00
36354;BME280;22383;51.114;13.666;2022-11-28T09:21:24;67456.72;;;2.43;100.00
36354;BME280;22383;51.114;13.666;2022-11-28T09:23:54;67452.41;;;2.41;100.00
36354;BME280;22383;51.114;13.666;2022-11-28T09:26:23;67470.03;;;2.53;100.00
36354;BME280;22383;51.114;13.666;2022-11-28T09:28:52;67466.28;;;2.52;100.00
36354;BME280;22383;51.114;13.666;2022-11-28T09:31:20;67472.66;;;2.53;100.00
36354;BME280;22383;51.114;13.666;2022-11-28T09:33:49;67472.47;;;2.57;100.00
36354;BME280;22383;51.114;13.666;2022-11-28T09:36:19;67476.22;;;2.58;100.00
36354;BME280;22383;51.114;13.666;2022-11-28T09:38:48;67485.38;;;2.62;100.00
36354;BME280;22383;51.114;13.666;2022-11-28T09:44:28;67479.25;;;2.63;100.00
36354;BME280;22383;51.114;13.666;2022-11-28T09:47:04;67482.81;;;2.69;100.00
36354;BME280;22383;51.114;13.666;2022-11-28T09:49:44;67489.94;;;2.73;100.00
36354;BME280;22383;51.114;13.666;2022-11-28T09:57:51;67482.41;;;2.64;100.00
36354;BME280;22383;51.114;13.666;2022-11-28T10:00:22;67481.31;;;2.63;100.00
36354;BME280;22383;51.114;13.666;2022-11-28T10:17:33;67495.38;;;2.76;100.00
36354;BME280;22383;51.114;13.666;2022-11-28T10:19:44;67491.63;;;2.75;100.00
36354;BME280;22383;51.114;13.666;2022-11-28T10:22:36;67495.56;;;2.78;100.00
36354;BME280;22383;51.114;13.666;2022-11-28T10:25:32;67513.41;;;2.92;100.00
36354;BME280;22383;51.114;13.666;2022-11-28T10:28:22;67507.75;;;2.87;100.00
36354;BME280;22383;51.114;13.666;2022-11-28T10:30:56;67508.16;;;2.92;100.00
36354;BME280;22383;51.114;13.666;2022-11-28T10:33:32;67518.25;;;2.94;100.00
36354;BME280;22383;51.114;13.666;2022-11-28T10:36:03;67520.34;;;3.01;100.00
36354;BME280;22383;51.114;13.666;2022-11-28T10:38:32;67525.03;;;3.00;100.00
36354;BME280;22383;51.114;13.666;2022-11-28T10:43:44;67526.72;;;3.02;100.00
36354;BME280;22383;51.114;13.666;2022-11-28T10:52:20;67529.53;;;3.05;100.00
36354;BME280;22383;51.114;13.666;2022-11-28T10:57:29;67546.44;;;3.20;100.00
36354;BME280;22383;51.114;13.666;2022-11-28T11:00:12;67538.75;;;3.15;100.00
36354;BME280;22383;51.114;13.666;2022-11-28T11:02:54;67536.50;;;3.13;100.00
36354;BME280;22383;51.114;13.666;2022-11-28T11:05:27;67537.06;;;3.14;100.00
36354;BME280;22383;51.114;13.666;2022-11-28T11:07:58;67529.75;;;3.07;100.00
36354;BME280;22383;51.114;13.666;2022-11-28T11:10:40;67521.44;;;3.21;100.00
36354;BME280;22383;51.114;13.666;2022-11-28T11:15:42;67547.75;;;3.24;100.00
36354;BME280;22383;51.114;13.666;2022-11-28T11:18:29;67537.25;;;3.16;100.00
36354;BME280;22383;51.114;13.666;2022-11-28T11:21:17;67548.91;;;3.25;100.00
36354;BME280;22383;51.114;13.666;2022-11-28T11:23:46;67551.16;;;3.27;100.00
36354;BME280;22383;51.114;13.666;2022-11-28T11:26:30;67551.94;;;3.30;100.00
36354;BME280;22383;51.114;13.666;2022-11-28T11:29:00;67554.72;;;3.32;100.00
36354;BME280;22383;51.114;13.666;2022-11-28T11:31:31;67540.84;;;3.22;100.00
36354;BME280;22383;51.114;13.666;2022-11-28T11:34:11;67550.59;;;3.26;100.00
36354;BME280;22383;51.114;13.666;2022-11-28T11:36:40;67553.41;;;3.29;100.00
36354;BME280;22383;51.114;13.666;2022-11-28T11:41:49;67557.91;;;3.33;100.00
36354;BME280;22383;51.114;13.666;2022-11-28T11:49:50;67563.38;;;3.43;100.00
36354;BME280;22383;51.114;13.666;2022-11-28T11:52:28;67569.19;;;3.43;100.00
36354;BME280;22383;51.114;13.666;2022-11-28T11:57:25;67560.72;;;3.35;100.00
36354;BME280;22383;51.114;13.666;2022-11-28T12:03:05;67537.19;;;3.35;100.00
36354;BME280;22383;51.114;13.666;2022-11-28T12:05:51;67566.16;;;3.38;100.00
36354;BME280;22383;51.114;13.666;2022-11-28T12:08:48;67566.94;;;3.41;100.00
36354;BME280;22383;51.114;13.666;2022-11-28T12:11:29;67573.91;;;3.50;100.00
36354;BME280;22383;51.114;13.666;2022-11-28T12:14:04;67590.81;;;3.65;100.00
36354;BME280;22383;51.114;13.666;2022-11-28T12:16:51;67586.09;;;3.58;100.00
36354;BME280;22383;51.114;13.666;2022-11-28T12:19:32;67595.88;;;3.70;100.00
36354;BME280;22383;51.114;13.666;2022-11-28T12:22:10;67590.59;;;3.63;100.00
36354;BME280;22383;51.114;13.666;2022-11-28T12:33:35;67604.13;;;3.75;100.00
36354;BME280;22383;51.114;13.666;2022-11-28T12:50:43;67595.69;;;3.67;100.00
36354;BME280;22383;51.114;13.666;2022-11-28T12:53:42;67587.78;;;3.60;100.00
36354;BME280;22383;51.114;13.666;2022-11-28T12:56:34;67592.28;;;3.64;100.00
36354;BME280;22383;51.114;13.666;2022-11-28T13:02:19;67584.22;;;3.54;100.00
36354;BME280;22383;51.114;13.666;2022-11-28T13:15:33;67579.69;;;3.50;100.00
36354;BME280;22383;51.114;13.666;2022-11-28T13:20:45;67578.41;;;3.54;100.00
36354;BME280;22383;51.114;13.666;2022-11-28T13:28:56;67571.78;;;3.43;100.00
36354;BME280;22383;51.114;13.666;2022-11-28T13:31:31;67568.78;;;3.38;100.00
36354;BME280;22383;51.114;13.666;2022-11-28T13:34:00;67565.59;;;3.37;100.00
36354;BME280;22383;51.114;13.666;2022-11-28T13:36:36;67558.28;;;3.31;100.00
36354;BME280;22383;51.114;13.666;2022-11-28T13:39:51;67561.66;;;3.34;100.00
36354;BME280;22383;51.114;13.666;2022-11-28T13:45:34;67562.97;;;3.37;100.00
36354;BME280;22383;51.114;13.666;2022-11-28T13:51:31;67549.25;;;3.22;100.00
36354;BME280;22383;51.114;13.666;2022-11-28T13:57:15;67543.47;;;3.22;100.00
36354;BME280;22383;51.114;13.666;2022-11-28T13:59:50;67546.44;;;3.20;100.00
36354;BME280;22383;51.114;13.666;2022-11-28T14:02:45;67550.19;;;3.21;100.00
36354;BME280;22383;51.114;13.666;2022-11-28T14:05:31;67532.91;;;3.08;100.00
36354;BME280;22383;51.114;13.666;2022-11-28T14:08:01;67523.34;;;2.99;100.00
36354;BME280;22383;51.114;13.666;2022-11-28T14:10:58;67525.44;;;3.06;100.00
36354;BME280;22383;51.114;13.666;2022-11-28T14:22:15;67537.06;;;3.14;100.00
36354;BME280;22383;51.114;13.666;2022-11-28T14:27:36;67514.31;;;2.91;100.00
36354;BME280;22383;51.114;13.666;2022-11-28T14:30:34;67506.66;;;2.86;100.00
36354;BME280;22383;51.114;13.666;2022-11-28T14:33:16;67499.50;;;2.82;100.00
36354;BME280;22383;51.114;13.666;2022-11-28T14:41:04;67499.47;;;2.75;100.00
36354;BME280;22383;51.114;13.666;2022-11-28T14:43:44;67496.50;;;2.77;100.00
36354;BME280;22383;51.114;13.666;2022-11-28T14:46:29;67490.84;;;2.72;100.00
36354;BME280;22383;51.114;13.666;2022-11-28T14:54:32;67492.56;;;2.73;100.00
36354;BME280;22383;51.114;13.666;2022-11-28T14:57:28;67489.75;;;2.71;100.00
36354;BME280;22383;51.114;13.666;2022-11-28T14:59:59;67490.84;;;2.72;100.00
36354;BME280;22383;51.114;13.666;2022-11-28T15:02:49;67488.59;;;2.70;100.00
36354;BME280;22383;51.114;13.666;2022-11-28T15:14:00;67493.69;;;2.74;100.00
36354;BME280;22383;51.114;13.666;2022-11-28T15:16:33;67496.28;;;2.74;100.00
36354;BME280;22383;51.114;13.666;2022-11-28T15:19:25;67490.84;;;2.72;100.00
36354;BME280;22383;51.114;13.666;2022-11-28T15:21:55;67493.69;;;2.74;100.00
36354;BME280;22383;51.114;13.666;2022-11-28T15:24:29;67495.38;;;2.76;100.00
36354;BME280;22383;51.114;13.666;2022-11-28T15:27:17;67493.47;;;2.72;100.00
36354;BME280;22383;51.114;13.666;2022-11-28T15:29:56;67488.81;;;2.72;100.00
36354;BME280;22383;51.114;13.666;2022-11-28T15:32:26;67490.09;;;2.69;100.00
36354;BME280;22383;51.114;13.666;2022-11-28T15:34:59;67486.91;;;2.68;100.00
36354;BME280;22383;51.114;13.666;2022-11-28T15:37:31;67489.53;;;2.68;100.00
36354;BME280;22383;51.114;13.666;2022-11-28T15:40:01;67485.25;;;2.67;100.00
36354;BME280;22383;51.114;13.666;2022-11-28T15:42:32;67489.53;;;2.68;100.00
36354;BME280;22383;51.114;13.666;2022-11-28T15:45:28;67486.00;;;2.70;100.00
36354;BME280;22383;51.114;13.666;2022-11-28T15:47:57;67488.59;;;2.70;100.00
36354;BME280;22383;51.114;13.666;2022-11-28T15:50:27;67482.06;;;2.66;100.00
36354;BME280;22383;51.114;13.666;2022-11-28T15:53:00;67485.81;;;2.67;100.00
36354;BME280;22383;51.114;13.666;2022-11-28T15:55:32;67487.28;;;2.66;100.00
36354;BME280;22383;51.114;13.666;2022-11-28T16:00:45;67481.31;;;2.63;100.00
36354;BME280;22383;51.114;13.666;2022-11-28T16:03:19;67478.31;;;2.65;100.00
36354;BME280;22383;51.114;13.666;2022-11-28T16:05:47;67487.28;;;2.66;100.00
36354;BME280;22383;51.114;13.666;2022-11-28T16:08:28;67483.75;;;2.68;100.00
36354;BME280;22383;51.114;13.666;2022-11-28T16:10:57;67484.66;;;2.66;100.00
36354;BME280;22383;51.114;13.666;2022-11-28T16:13:26;67490.84;;;2.72;100.00
36354;BME280;22383;51.114;13.666;2022-11-28T16:15:56;67482.63;;;2.67;100.00
36354;BME280;22383;51.114;13.666;2022-11-28T16:18:27;67483.75;;;2.68;100.00
36354;BME280;22383;51.114;13.666;2022-11-28T16:20:57;67482.63;;;2.67;100.00
36354;BME280;22383;51.114;13.666;2022-11-28T16:23:32;67483.56;;;2.65;100.00
36354;BME280;22383;51.114;13.666;2022-11-28T16:26:23;67485.25;;;2.67;100.00
36354;BME280;22383;51.114;13.666;2022-11-28T16:29:20;67480.56;;;2.67;100.00
36354;BME280;22383;51.114;13.666;2022-11-28T16:31:48;67487.50;;;2.69;100.00
36354;BME280;22383;51.114;13.666;2022-11-28T16:34:42;67482.06;;;2.66;100.00
36354;BME280;22383;51.114;13.666;2022-11-28T16:37:11;67484.66;;;2.66;100.00
36354;BME280;22383;51.114;13.666;2022-11-28T16:39:38;67488.03;;;2.69;100.00
36354;BME280;22383;51.114;13.666;2022-11-28T16:42:14;67488.78;;;2.65;100.00
36354;BME280;22383;51.114;13.666;2022-11-28T16:44:43;67484.66;;;2.66;100.00
36354;BME280;22383;51.114;13.666;2022-11-28T16:47:28;67483.19;;;2.67;100.00
36354;BME280;22383;51.114;13.666;2022-11-28T16:50:31;67486.34;;;2.68;100.00
36354;BME280;22383;51.114;13.666;2022-11-28T16:52:58;67485.81;;;2.67;100.00
36354;BME280;22383;51.114;13.666;2022-11-28T16:57:59;67482.41;;;2.64;100.00
36354;BME280;22383;51.114;13.666;2022-11-28T17:00:29;67482.41;;;2.64;100.00
36354;BME280;22383;51.114;13.666;2022-11-28T17:02:57;67488.03;;;2.69;100.00